Time;durP1;ratioP1;P1;durP2;ratioP2;P2;SDS_P1;SDS_P2;PMS_P1;PMS_P2;Temp;Humidity;BMP_temperature;BMP_pressure;BME280_temperature;BME280_humidity;BME280_pressure;Samples;Min_cycle;Max_cycle;Signal;HPM_P1;HPM_P2
2023/03/04 00:00:10;;;;;;;50.03;19.60;;;;;;;1.69;100.00;100197.91;5051171;28;20029;-36
2023/03/04 00:02:36;;;;;;;51.75;19.70;;;;;;;1.80;100.00;100220.50;5051381;28;20317;-34
2023/03/04 00:05:02;;;;;;;42.63;20.75;;;;;;;2.05;100.00;100233.75;5051134;28;20029;-33
2023/03/04 00:07:28;;;;;;;41.63;19.23;;;;;;;2.12;100.00;100203.16;5051079;28;20032;-34
2023/03/04 00:09:54;;;;;;;52.80;18.17;;;;;;;2.38;100.00;100218.84;5050940;28;20025;-32
2023/03/04 00:12:19;;;;;;;52.20;19.83;;;;;;;2.50;100.00;100216.75;5051369;28;20533;-35
2023/03/04 00:14:44;;;;;;;54.95;19.55;;;;;;;2.52;100.00;100230.56;5051215;28;20029;-33
2023/03/04 00:17:10;;;;;;;42.17;19.30;;;;;;;2.56;100.00;100226.63;5051092;28;20029;-33
2023/03/04 00:19:38;;;;;;;42.72;17.30;;;;;;;2.30;100.00;100198.59;5050558;28;20029;-33
2023/03/04 00:22:05;;;;;;;45.55;21.73;;;;;;;2.48;100.00;100210.81;5050875;28;20028;-39
2023/03/04 00:24:31;;;;;;;54.80;22.92;;;;;;;2.21;100.00;100181.16;5051258;28;20036;-39
2023/03/04 00:26:57;;;;;;;50.55;23.10;;;;;;;2.28;100.00;100199.75;5050562;28;20029;-33
2023/03/04 00:29:22;;;;;;;44.10;20.80;;;;;;;2.25;100.00;100187.75;5050850;28;20025;-34
2023/03/04 00:31:48;;;;;;;48.13;22.42;;;;;;;2.48;100.00;100187.13;5050422;28;20025;-34
2023/03/04 00:34:13;;;;;;;42.50;20.98;;;;;;;2.57;100.00;100172.97;5050809;28;20029;-35
2023/03/04 00:36:38;;;;;;;43.80;21.15;;;;;;;2.77;100.00;100197.16;5050734;28;20029;-33
2023/03/04 00:39:04;;;;;;;45.03;21.95;;;;;;;2.64;100.00;100181.88;5050571;28;20082;-33
2023/03/04 00:41:29;;;;;;;35.72;19.50;;;;;;;2.53;100.00;100205.88;5049990;28;20484;-33
2023/03/04 00:43:55;;;;;;;37.45;19.08;;;;;;;2.57;100.00;100196.66;5049628;28;20045;-34
2023/03/04 00:46:20;;;;;;;36.33;19.38;;;;;;;2.66;100.00;100190.44;5050439;28;20107;-36
2023/03/04 00:48:46;;;;;;;42.67;21.05;;;;;;;2.44;100.00;100177.91;5050465;28;20025;-33
2023/03/04 00:51:11;;;;;;;38.00;21.05;;;;;;;2.47;100.00;100177.56;5050422;28;20024;-35
2023/03/04 00:53:36;;;;;;;43.08;20.38;;;;;;;2.29;100.00;100188.22;5049926;28;20463;-42
2023/03/04 00:56:05;;;;;;;36.45;19.13;;;;;;;2.44;100.00;100188.44;5050208;28;20029;-32
2023/03/04 00:58:30;;;;;;;31.83;17.65;;;;;;;2.13;100.00;100189.03;5050105;28;20482;-32
2023/03/04 01:00:55;;;;;;;38.72;19.90;;;;;;;1.89;100.00;100193.22;5050415;28;20036;-32
2023/03/04 01:03:21;;;;;;;49.17;22.25;;;;;;;1.64;100.00;100194.13;5050083;28;20025;-35
2023/03/04 01:05:46;;;;;;;38.78;18.75;;;;;;;1.65;100.00;100216.81;5050324;28;20032;-32
2023/03/04 01:08:14;;;;;;;36.50;17.33;;;;;;;0.88;100.00;100196.47;5048726;28;20032;-32
2023/03/04 01:10:40;;;;;;;32.17;16.15;;;;;;;0.94;100.00;100187.13;5049913;28;20032;-32
2023/03/04 01:13:05;;;;;;;37.38;16.33;;;;;;;1.12;100.00;100210.75;5049791;28;20032;-34
2023/03/04 01:15:30;;;;;;;52.80;18.88;;;;;;;1.60;100.00;100210.22;5049370;28;20025;-33
2023/03/04 01:18:01;;;;;;;49.78;19.50;;;;;;;1.60;100.00;100209.38;5050044;28;20028;-32
2023/03/04 01:20:26;;;;;;;65.55;20.70;;;;;;;1.96;100.00;100204.78;5049851;28;20014;-34
2023/03/04 01:22:52;;;;;;;64.65;21.52;;;;;;;1.95;100.00;100207.56;5049824;28;20481;-33
2023/03/04 01:25:17;;;;;;;46.72;21.50;;;;;;;2.10;100.00;100200.69;5048087;28;20024;-37
2023/03/04 01:27:43;;;;;;;50.13;25.27;;;;;;;2.12;100.00;100193.47;5049494;28;20021;-32
2023/03/04 01:30:09;;;;;;;47.00;23.50;;;;;;;2.16;100.00;100197.41;5049866;28;20393;-34
2023/03/04 01:32:35;;;;;;;37.58;20.85;;;;;;;2.16;100.00;100168.47;5049467;28;20032;-33
2023/03/04 01:35:00;;;;;;;41.22;19.95;;;;;;;2.27;100.00;100191.03;5049723;28;20025;-33
2023/03/04 01:37:25;;;;;;;39.38;20.13;;;;;;;2.41;100.00;100173.78;5049101;28;20425;-32
2023/03/04 01:39:53;;;;;;;49.25;23.33;;;;;;;2.52;100.00;100183.19;5049271;28;20469;-36
2023/03/04 01:42:21;;;;;;;61.73;28.77;;;;;;;2.64;100.00;100192.41;5047883;28;20461;-32
2023/03/04 01:44:47;;;;;;;75.28;31.17;;;;;;;2.22;100.00;100172.28;5049536;28;20298;-33
2023/03/04 01:47:13;;;;;;;94.93;36.00;;;;;;;2.01;100.00;100170.91;5049293;28;20029;-38
2023/03/04 01:49:39;;;;;;;80.45;32.63;;;;;;;2.29;100.00;100160.13;5049272;28;20095;-37
2023/03/04 01:52:05;;;;;;;54.88;25.35;;;;;;;2.39;100.00;100184.47;5049172;28;20511;-34
2023/03/04 01:54:30;;;;;;;50.45;25.52;;;;;;;2.39;100.00;100187.13;5049129;28;20036;-33
2023/03/04 01:56:59;;;;;;;61.35;28.17;;;;;;;2.37;100.00;100186.44;5048325;28;20052;-33
2023/03/04 01:59:29;;;;;;;56.58;27.67;;;;;;;2.51;100.00;100182.34;5049351;28;20028;-32
2023/03/04 02:01:58;;;;;;;47.80;24.75;;;;;;;2.58;100.00;100182.53;5049204;28;20032;-33
2023/03/04 02:04:30;;;;;;;41.55;22.02;;;;;;;2.55;100.00;100156.50;5049058;28;20025;-31
2023/03/04 02:06:56;;;;;;;43.92;21.40;;;;;;;2.48;100.00;100158.16;5049029;28;20021;-33
2023/03/04 02:09:23;;;;;;;55.65;24.00;;;;;;;2.39;100.00;100144.16;5048482;28;20036;-35
2023/03/04 02:11:51;;;;;;;48.50;24.05;;;;;;;2.53;100.00;100171.66;5048962;28;20021;-35
2023/03/04 02:14:18;;;;;;;43.80;22.25;;;;;;;2.44;100.00;100173.47;5047971;28;20033;-37
2023/03/04 02:16:44;;;;;;;42.70;20.85;;;;;;;2.45;100.00;100188.25;5048971;28;20025;-32
2023/03/04 02:19:21;;;;;;;33.78;18.90;;;;;;;2.44;100.00;100159.47;5049008;28;20500;-32
2023/03/04 02:21:47;;;;;;;36.60;20.85;;;;;;;2.72;100.00;100176.59;5048897;28;20028;-33
2023/03/04 02:24:26;;;;;;;39.25;21.30;;;;;;;2.70;100.00;100175.94;5048790;28;20032;-33
2023/03/04 02:26:51;;;;;;;43.45;24.42;;;;;;;2.64;100.00;100146.81;5049024;28;20033;-39
2023/03/04 02:29:17;;;;;;;60.97;30.95;;;;;;;2.73;100.00;100154.53;5048648;28;20063;-34
2023/03/04 02:31:46;;;;;;;68.57;32.58;;;;;;;2.62;100.00;100181.22;5047425;28;20029;-33
2023/03/04 02:34:18;;;;;;;68.65;33.25;;;;;;;2.18;100.00;100168.31;5048856;28;20037;-33
2023/03/04 02:36:45;;;;;;;74.80;30.75;;;;;;;1.93;100.00;100163.00;5048602;28;20512;-36
2023/03/04 02:39:24;;;;;;;67.97;30.02;;;;;;;2.37;100.00;100162.78;5048966;28;20060;-32
2023/03/04 02:41:52;;;;;;;70.43;30.73;;;;;;;2.32;100.00;100169.50;5048501;28;20033;-35
2023/03/04 02:44:20;;;;;;;66.57;30.05;;;;;;;2.76;100.00;100170.03;5049098;28;20029;-32
2023/03/04 02:46:46;;;;;;;66.95;29.33;;;;;;;2.47;100.00;100162.59;5048624;28;20039;-26
2023/03/04 02:49:12;;;;;;;61.40;28.17;;;;;;;2.16;100.00;100146.59;5048435;28;20029;-31
2023/03/04 02:51:38;;;;;;;52.67;25.83;;;;;;;2.36;100.00;100158.47;5047332;28;20024;-31
2023/03/04 02:54:14;;;;;;;40.83;21.98;;;;;;;2.62;100.00;100141.72;5047159;28;20060;-32
2023/03/04 02:56:48;;;;;;;39.28;21.13;;;;;;;2.13;100.00;100162.72;5048583;28;20386;-33
2023/03/04 02:59:13;;;;;;;35.55;18.15;;;;;;;2.09;100.00;100150.88;5048520;28;20033;-39
2023/03/04 03:01:39;;;;;;;28.27;16.23;;;;;;;2.17;100.00;100156.16;5048226;28;20035;-33
2023/03/04 03:04:04;;;;;;;33.13;17.60;;;;;;;2.27;100.00;100170.00;5048518;28;20036;-35
2023/03/04 03:06:32;;;;;;;31.80;17.60;;;;;;;2.54;100.00;100152.25;5048772;28;20047;-35
2023/03/04 03:08:57;;;;;;;31.95;18.40;;;;;;;2.45;100.00;100161.13;5052363;28;20029;-29
2023/03/04 03:11:23;;;;;;;32.38;18.17;;;;;;;2.44;100.00;100180.53;5052180;28;20033;-32
2023/03/04 03:13:48;;;;;;;31.48;19.10;;;;;;;2.28;100.00;100176.06;5052117;28;20926;-34
2023/03/04 03:16:13;;;;;;;35.40;19.35;;;;;;;2.16;100.00;100162.41;5050612;28;20036;-32
2023/03/04 03:18:41;;;;;;;39.08;19.23;;;;;;;2.00;100.00;100174.53;5052207;28;20056;-33
2023/03/04 03:21:06;;;;;;;29.67;17.15;;;;;;;1.88;100.00;100201.28;5052240;28;20025;-33
2023/03/04 03:23:33;;;;;;;30.33;16.63;;;;;;;2.05;100.00;100196.91;5050479;28;20891;-32
2023/03/04 03:25:58;;;;;;;27.98;16.00;;;;;;;2.26;100.00;100202.53;5052337;28;20545;-34
2023/03/04 03:28:23;;;;;;;29.83;16.80;;;;;;;2.47;100.00;100191.53;5052045;28;20144;-32
2023/03/04 03:30:49;;;;;;;32.05;18.67;;;;;;;2.76;100.00;100190.28;5051588;28;20037;-32
2023/03/04 03:33:14;;;;;;;33.10;19.55;;;;;;;2.54;100.00;100175.94;5050553;28;20882;-32
2023/03/04 03:35:40;;;;;;;32.08;18.95;;;;;;;2.75;100.00;100192.06;5051905;28;20029;-32
2023/03/04 03:38:05;;;;;;;31.45;19.33;;;;;;;2.52;100.00;100180.53;5051857;28;20025;-32
2023/03/04 03:40:31;;;;;;;35.67;20.48;;;;;;;2.70;100.00;100194.38;5051521;28;20072;-31
2023/03/04 03:42:56;;;;;;;40.95;24.50;;;;;;;2.80;100.00;100183.69;5051373;28;20053;-37
2023/03/04 03:45:21;;;;;;;46.75;28.35;;;;;;;2.72;100.00;100181.06;5051081;28;20028;-32
2023/03/04 03:47:49;;;;;;;40.15;23.23;;;;;;;2.91;100.00;100188.59;5050352;28;20116;-30
2023/03/04 03:50:15;;;;;;;42.45;22.85;;;;;;;2.71;100.00;100176.75;5033693;28;20119;-31
2023/03/04 03:52:40;;;;;;;36.85;23.10;;;;;;;2.52;100.00;100193.72;5051328;28;20560;-34
2023/03/04 03:55:06;;;;;;;121.22;57.78;;;;;;;2.31;100.00;100189.72;5051656;28;20084;-31
2023/03/04 03:57:32;;;;;;;44.67;25.70;;;;;;;2.52;100.00;100186.63;5051020;28;20029;-33
2023/03/04 03:59:57;;;;;;;42.47;24.77;;;;;;;2.80;100.00;100181.88;5051119;28;20025;-32
2023/03/04 04:02:23;;;;;;;36.33;21.42;;;;;;;2.41;100.00;100171.97;5051202;28;20021;-31
2023/03/04 04:04:48;;;;;;;57.85;33.40;;;;;;;2.15;100.00;100171.28;5049949;28;20405;-32
2023/03/04 04:07:14;;;;;;;40.40;24.58;;;;;;;2.27;100.00;100190.19;5049648;28;20029;-33
2023/03/04 04:09:39;;;;;;;40.63;23.13;;;;;;;2.23;100.00;100194.97;5051066;28;20090;-37
2023/03/04 04:12:06;;;;;;;38.47;22.05;;;;;;;2.49;100.00;100179.03;5051063;28;20055;-32
2023/03/04 04:14:32;;;;;;;36.05;20.08;;;;;;;2.26;100.00;100163.06;5051020;28;20444;-32
2023/03/04 04:16:58;;;;;;;38.13;21.23;;;;;;;2.07;100.00;100179.97;5051142;28;20098;-32
2023/03/04 04:19:23;;;;;;;32.47;19.40;;;;;;;2.32;100.00;100187.91;5050046;28;20481;-31
2023/03/04 04:21:49;;;;;;;33.08;20.05;;;;;;;2.42;100.00;100184.16;5050824;28;20096;-33
2023/03/04 04:24:15;;;;;;;33.38;19.80;;;;;;;2.52;100.00;100197.16;5050849;28;20421;-31
2023/03/04 04:26:40;;;;;;;34.10;19.23;;;;;;;2.42;100.00;100194.66;5050912;28;20036;-35
2023/03/04 04:29:06;;;;;;;33.97;18.85;;;;;;;2.63;100.00;100184.66;5050370;28;20075;-38
2023/03/04 04:31:32;;;;;;;31.77;19.00;;;;;;;2.61;100.00;100187.44;5050610;28;20083;-32
2023/03/04 04:33:58;;;;;;;34.55;18.13;;;;;;;2.22;100.00;100180.97;5050846;28;20851;-31
2023/03/04 04:36:23;;;;;;;43.75;21.77;;;;;;;2.32;100.00;100186.09;5050598;28;20059;-31
2023/03/04 04:38:51;;;;;;;56.85;26.38;;;;;;;2.46;100.00;100183.84;5050757;28;20025;-31
2023/03/04 04:41:22;;;;;;;60.33;31.48;;;;;;;2.31;100.00;100191.53;5050455;28;20025;-35
2023/03/04 04:43:48;;;;;;;58.63;31.70;;;;;;;1.97;100.00;100203.78;5050835;28;20061;-31
2023/03/04 04:46:14;;;;;;;45.40;27.73;;;;;;;1.75;100.00;100191.22;5050340;28;20025;-31
2023/03/04 04:48:40;;;;;;;65.30;35.83;;;;;;;1.81;100.00;100172.16;5050328;28;20115;-35
2023/03/04 04:51:07;;;;;;;46.15;25.77;;;;;;;2.12;100.00;100192.63;5049045;28;20108;-37
2023/03/04 04:53:33;;;;;;;51.67;26.88;;;;;;;2.08;100.00;100196.56;5050056;28;20033;-34
2023/03/04 04:56:08;;;;;;;57.15;29.42;;;;;;;1.80;100.00;100186.31;5050524;28;20037;-33
2023/03/04 04:58:33;;;;;;;49.00;28.05;;;;;;;1.85;100.00;100202.41;5050339;28;20032;-35
2023/03/04 05:00:58;;;;;;;106.20;54.90;;;;;;;1.66;100.00;100205.31;5048871;28;20476;-32
2023/03/04 05:03:24;;;;;;;87.28;48.35;;;;;;;1.44;100.00;100210.13;5049758;28;20032;-31
2023/03/04 05:05:49;;;;;;;80.35;39.83;;;;;;;1.40;100.00;100208.78;5050180;28;20123;-32
2023/03/04 05:08:15;;;;;;;41.33;23.48;;;;;;;1.53;100.00;100206.56;5049889;28;20032;-31
2023/03/04 05:10:40;;;;;;;34.97;20.40;;;;;;;1.96;100.00;100198.66;5049725;28;20386;-34
2023/03/04 05:13:05;;;;;;;54.40;36.03;;;;;;;1.94;100.00;100195.38;5049772;28;20028;-31
2023/03/04 05:15:31;;;;;;;43.15;26.73;;;;;;;1.89;100.00;100185.34;5049775;28;20033;-31
2023/03/04 05:17:56;;;;;;;37.67;23.90;;;;;;;1.88;100.00;100190.75;5049782;28;20086;-30
2023/03/04 05:20:22;;;;;;;38.58;21.45;;;;;;;1.91;100.00;100201.78;5049885;28;20477;-31
2023/03/04 05:22:48;;;;;;;31.40;19.40;;;;;;;1.97;100.00;100188.00;5049871;28;20473;-30
2023/03/04 05:25:13;;;;;;;41.58;22.15;;;;;;;1.97;100.00;100190.63;5049423;28;20078;-34
2023/03/04 05:27:41;;;;;;;45.30;22.00;;;;;;;2.06;100.00;100188.84;5048227;28;20025;-32
2023/03/04 05:30:07;;;;;;;39.67;22.07;;;;;;;2.34;100.00;100197.28;5049567;28;20029;-33
2023/03/04 05:32:32;;;;;;;31.92;18.98;;;;;;;2.46;100.00;100200.44;5049786;28;20259;-41
2023/03/04 05:34:58;;;;;;;31.75;17.08;;;;;;;2.33;100.00;100190.41;5048255;28;20029;-31
2023/03/04 05:37:23;;;;;;;33.38;17.67;;;;;;;2.36;100.00;100190.06;5049411;28;20540;-30
2023/03/04 05:39:49;;;;;;;29.73;17.02;;;;;;;2.53;100.00;100174.28;5049108;28;20032;-33
2023/03/04 05:42:14;;;;;;;31.17;17.48;;;;;;;2.41;100.00;100182.50;5047918;28;20056;-34
2023/03/04 05:44:40;;;;;;;35.60;19.15;;;;;;;2.59;100.00;100179.72;5049657;28;20028;-28
2023/03/04 05:47:05;;;;;;;37.28;20.60;;;;;;;2.52;100.00;100188.44;5049305;28;20467;-39
2023/03/04 05:49:30;;;;;;;35.97;22.15;;;;;;;2.57;100.00;100188.75;5048975;28;20037;-31
2023/03/04 05:51:56;;;;;;;40.42;23.77;;;;;;;2.41;100.00;100206.19;5049203;28;20104;-32
2023/03/04 05:54:21;;;;;;;40.05;22.65;;;;;;;2.46;100.00;100195.19;5049039;28;20029;-30
2023/03/04 05:56:47;;;;;;;36.60;19.23;;;;;;;2.40;100.00;100186.13;5049305;28;20064;-31
2023/03/04 05:59:12;;;;;;;34.53;17.92;;;;;;;2.67;100.00;100215.75;5047956;28;20035;-31
2023/03/04 06:01:38;;;;;;;33.47;17.45;;;;;;;2.64;100.00;100202.94;5049022;28;20025;-30
2023/03/04 06:04:03;;;;;;;30.50;17.55;;;;;;;2.71;100.00;100222.34;5049440;28;20405;-35
2023/03/04 06:06:29;;;;;;;42.88;24.42;;;;;;;2.77;100.00;100205.06;5049181;28;20397;-33
2023/03/04 06:08:54;;;;;;;29.63;17.92;;;;;;;2.95;100.00;100218.06;5048874;28;20492;-33
2023/03/04 06:11:20;;;;;;;41.67;21.50;;;;;;;3.09;100.00;100227.13;5047501;28;20087;-31
2023/03/04 06:13:45;;;;;;;38.40;22.42;;;;;;;2.99;100.00;100222.03;5048973;28;20071;-32
2023/03/04 06:16:11;;;;;;;47.38;20.95;;;;;;;3.03;100.00;100218.06;5049094;28;20123;-34
2023/03/04 06:18:36;;;;;;;47.05;22.90;;;;;;;3.09;100.00;100200.78;5048970;28;20086;-33
2023/03/04 06:21:02;;;;;;;50.45;22.55;;;;;;;2.95;100.00;100229.44;5048787;28;20482;-31
2023/03/04 06:23:29;;;;;;;40.10;22.20;;;;;;;2.79;100.00;100196.00;5048668;28;20108;-31
2023/03/04 06:25:57;;;;;;;51.05;28.65;;;;;;;3.27;100.00;100240.09;5048729;28;20029;-32
2023/03/04 06:28:22;;;;;;;39.63;23.10;;;;;;;3.27;100.00;100219.84;5047802;28;20025;-32
2023/03/04 06:30:51;;;;;;;49.15;27.85;;;;;;;3.29;100.00;100214.41;5048747;28;20043;-32
2023/03/04 06:33:16;;;;;;;48.28;29.27;;;;;;;3.39;100.00;100210.59;5048596;28;20396;-36
2023/03/04 06:35:42;;;;;;;45.20;24.90;;;;;;;3.37;100.00;100236.31;5048845;28;20029;-31
2023/03/04 06:38:07;;;;;;;87.05;45.20;;;;;;;3.52;100.00;100244.34;5048695;28;20107;-32
2023/03/04 06:40:33;;;;;;;44.45;26.40;;;;;;;3.49;100.00;100228.03;5048479;28;20036;-31
2023/03/04 06:42:58;;;;;;;40.67;25.17;;;;;;;3.44;100.00;100233.81;5049383;28;20053;-31
2023/03/04 06:45:26;;;;;;;41.63;24.77;;;;;;;3.28;100.00;100232.03;5051352;28;20028;-33
2023/03/04 06:47:51;;;;;;;44.90;24.00;;;;;;;3.37;100.00;100219.66;5052806;28;20568;-33
2023/03/04 06:50:17;;;;;;;43.38;23.63;;;;;;;3.69;100.00;100245.13;5052812;28;20044;-32
2023/03/04 06:52:42;;;;;;;43.60;23.38;;;;;;;3.68;100.00;100237.38;5052373;28;20071;-32
2023/03/04 06:55:08;;;;;;;40.63;21.77;;;;;;;3.99;100.00;100259.38;5052504;28;20025;-34
2023/03/04 06:57:34;;;;;;;38.08;20.05;;;;;;;3.92;100.00;100261.03;5052436;28;20083;-32
2023/03/04 07:00:02;;;;;;;37.40;20.48;;;;;;;3.96;100.00;100262.38;5052525;28;20082;-33
2023/03/04 07:02:27;;;;;;;94.28;42.38;;;;;;;4.30;100.00;100258.56;5051067;28;20029;-36
2023/03/04 07:04:53;;;;;;;51.83;28.15;;;;;;;4.15;100.00;100249.75;5052506;28;20036;-32
2023/03/04 07:07:18;;;;;;;61.78;34.42;;;;;;;4.30;100.00;100237.44;5051599;28;20051;-32
2023/03/04 07:09:44;;;;;;;199.93;91.18;;;;;;;4.51;100.00;100257.94;5041251;28;20029;-32
2023/03/04 07:12:09;;;;;;;74.68;37.28;;;;;;;4.61;100.00;100263.81;5042364;28;20032;-36
2023/03/04 07:14:34;;;;;;;54.80;31.10;;;;;;;4.85;100.00;100253.28;5039323;28;20017;-27
2023/03/04 07:17:00;;;;;;;64.43;37.28;;;;;;;4.48;100.00;100249.56;5039969;28;20030;-32
2023/03/04 07:19:25;;;;;;;64.38;32.15;;;;;;;4.73;100.00;100272.16;5044884;28;20093;-31
2023/03/04 07:21:51;;;;;;;56.55;31.75;;;;;;;4.88;100.00;100268.78;5039679;28;20094;-33
2023/03/04 07:24:16;;;;;;;48.85;27.48;;;;;;;4.78;100.00;100253.16;5039298;28;20103;-36
2023/03/04 07:26:41;;;;;;;39.42;21.67;;;;;;;4.81;100.00;100269.47;5036737;28;20453;-34
2023/03/04 07:29:07;;;;;;;42.60;19.98;;;;;;;4.80;100.00;100259.91;5042702;28;20029;-33
2023/03/04 07:31:34;;;;;;;35.47;19.17;;;;;;;4.88;100.00;100252.91;5031276;28;20077;-33
2023/03/04 07:34:10;;;;;;;34.88;19.50;;;;;;;4.94;100.00;100244.28;5041607;28;20021;-32
2023/03/04 07:36:36;;;;;;;31.67;18.50;;;;;;;4.74;100.00;100239.50;5031218;28;20036;-33
2023/03/04 07:39:02;;;;;;;33.83;19.77;;;;;;;4.84;100.00;100260.38;5042082;28;20111;-33
2023/03/04 07:41:28;;;;;;;38.40;20.25;;;;;;;4.98;100.00;100256.13;5031586;28;20037;-33
2023/03/04 07:43:57;;;;;;;34.90;20.15;;;;;;;5.03;100.00;100259.91;5036225;28;20107;-32
2023/03/04 07:46:23;;;;;;;34.67;19.40;;;;;;;5.24;100.00;100256.56;5038912;28;20037;-35
2023/03/04 07:48:49;;;;;;;37.13;20.20;;;;;;;5.28;100.00;100250.94;5041781;28;20041;-33
2023/03/04 07:51:17;;;;;;;34.60;19.92;;;;;;;5.03;100.00;100224.72;5048531;28;20029;-33
2023/03/04 07:53:47;;;;;;;36.47;20.52;;;;;;;5.08;100.00;100234.75;5033133;28;20563;-35
2023/03/04 07:56:16;;;;;;;35.40;19.30;;;;;;;4.93;100.00;100224.97;5044436;28;20041;-32
2023/03/04 07:58:42;;;;;;;35.25;19.42;;;;;;;5.19;100.00;100227.22;5041356;28;20033;-36
2023/03/04 08:01:22;;;;;;;36.97;19.52;;;;;;;5.34;100.00;100255.50;5042922;28;20048;-34
2023/03/04 08:03:48;;;;;;;33.30;18.25;;;;;;;5.33;100.00;100243.28;5042993;28;20091;-37
2023/03/04 08:06:19;;;;;;;33.22;18.95;;;;;;;5.52;100.00;100248.06;5039596;28;20049;-40
2023/03/04 08:08:46;;;;;;;33.85;18.45;;;;;;;5.68;100.00;100243.56;5042100;28;20025;-33
2023/03/04 08:11:15;;;;;;;33.75;19.25;;;;;;;5.76;100.00;100246.13;5043956;28;20051;-33
2023/03/04 08:13:41;;;;;;;32.33;18.00;;;;;;;5.78;100.00;100247.59;5030849;28;20105;-40
2023/03/04 08:16:06;;;;;;;34.03;19.15;;;;;;;5.87;100.00;100235.09;5040040;28;20037;-35
2023/03/04 08:18:32;;;;;;;30.17;18.42;;;;;;;5.93;100.00;100226.41;5049576;28;20059;-32
2023/03/04 08:20:58;;;;;;;37.00;18.60;;;;;;;5.93;100.00;100244.94;5036778;28;20108;-33
2023/03/04 08:23:24;;;;;;;33.33;19.25;;;;;;;6.07;100.00;100250.41;5036376;28;20049;-35
2023/03/04 08:25:50;;;;;;;40.00;20.88;;;;;;;6.18;100.00;100236.72;5032726;28;20060;-34
2023/03/04 08:28:16;;;;;;;31.92;18.52;;;;;;;6.12;100.00;100250.72;5034483;28;20037;-36
2023/03/04 08:30:41;;;;;;;54.25;30.55;;;;;;;6.22;100.00;100243.28;5034043;28;20417;-36
2023/03/04 08:33:08;;;;;;;34.63;20.60;;;;;;;6.45;100.00;100259.03;5031364;28;20032;-32
2023/03/04 08:35:37;;;;;;;35.88;20.10;;;;;;;6.46;100.00;100254.53;5039558;28;20033;-34
2023/03/04 08:38:02;;;;;;;33.30;18.33;;;;;;;6.42;100.00;100254.94;5029776;28;20029;-34
2023/03/04 08:40:29;;;;;;;33.58;18.05;;;;;;;6.34;100.00;100252.41;5040506;28;20039;-34
2023/03/04 08:42:55;;;;;;;33.22;19.08;;;;;;;6.35;100.00;100238.13;5029943;28;20041;-33
2023/03/04 08:45:20;;;;;;;32.72;19.17;;;;;;;6.47;100.00;100258.84;5040343;28;20109;-33
2023/03/04 08:47:46;;;;;;;37.05;24.95;;;;;;;6.58;100.00;100247.78;5028419;28;20033;-36
2023/03/04 08:50:11;;;;;;;45.90;26.05;;;;;;;6.74;100.00;100244.88;5037451;28;20140;-32
2023/03/04 08:52:37;;;;;;;42.45;28.30;;;;;;;6.74;100.00;100230.78;5049939;28;20485;-33
2023/03/04 08:55:02;;;;;;;48.25;30.45;;;;;;;7.10;100.00;100245.78;5043182;28;20453;-40
2023/03/04 08:57:28;;;;;;;45.03;26.52;;;;;;;7.04;100.00;100231.47;5029913;28;20034;-32
2023/03/04 08:59:53;;;;;;;46.38;27.52;;;;;;;7.13;100.00;100235.63;5037133;28;20037;-34
2023/03/04 09:02:19;;;;;;;44.13;27.17;;;;;;;7.20;100.00;100239.13;5039455;28;20043;-35
2023/03/04 09:04:44;;;;;;;43.40;27.83;;;;;;;7.17;100.00;100241.34;5039762;28;20025;-32
2023/03/04 09:07:10;;;;;;;44.35;27.90;;;;;;;7.33;100.00;100234.94;5030380;28;20040;-31
2023/03/04 09:09:37;;;;;;;39.10;23.40;;;;;;;7.48;100.00;100238.31;5029225;28;20022;-33
2023/03/04 09:12:03;;;;;;;45.53;27.42;;;;;;;7.52;100.00;100228.97;5031149;28;20028;-33
2023/03/04 09:14:28;;;;;;;37.67;23.02;;;;;;;7.62;100.00;100240.06;5047584;28;20037;-36
2023/03/04 09:16:54;;;;;;;38.05;23.35;;;;;;;7.69;98.35;100241.91;5048839;28;20086;-36
2023/03/04 09:19:21;;;;;;;67.38;39.38;;;;;;;7.84;99.58;100239.94;5047597;28;20021;-33
2023/03/04 09:21:47;;;;;;;39.15;23.73;;;;;;;8.09;98.78;100226.16;5047666;28;20033;-33
2023/03/04 09:24:12;;;;;;;39.75;24.67;;;;;;;8.10;98.91;100235.78;5048973;28;20477;-33
2023/03/04 09:26:37;;;;;;;43.10;25.42;;;;;;;8.35;98.71;100234.22;5048660;28;20035;-33
2023/03/04 09:29:03;;;;;;;44.38;30.13;;;;;;;8.63;96.61;100212.03;5048455;28;20136;-33
2023/03/04 09:31:29;;;;;;;48.53;32.55;;;;;;;9.16;94.20;100219.22;5048746;28;20048;-35
2023/03/04 09:33:56;;;;;;;41.08;29.80;;;;;;;9.49;94.26;100213.03;5048868;28;20029;-33
2023/03/04 09:36:22;;;;;;;34.47;21.63;;;;;;;9.99;90.70;100215.94;5048919;28;20041;-33
2023/03/04 09:38:47;;;;;;;37.35;23.13;;;;;;;10.23;90.52;100217.09;5047528;28;20263;-34
2023/03/04 09:41:24;;;;;;;33.72;20.88;;;;;;;10.47;89.12;100209.41;5048560;28;20043;-38
2023/03/04 09:43:53;;;;;;;31.70;20.08;;;;;;;10.72;88.76;100206.78;5048710;28;20053;-32
2023/03/04 09:46:31;;;;;;;34.08;26.55;;;;;;;11.11;89.82;100194.97;5048644;28;20074;-37
2023/03/04 09:48:56;;;;;;;33.60;21.63;;;;;;;10.86;88.26;100198.44;5048360;28;20025;-32
2023/03/04 09:52:01;;;;;;;29.90;18.40;;;;;;;11.46;85.66;100200.59;5048347;28;20032;-32
2023/03/04 09:54:44;;;;;;;31.70;21.67;;;;;;;11.63;84.11;100184.78;5047972;28;20036;-34
2023/03/04 09:57:47;;;;;;;31.75;19.60;;;;;;;12.25;88.43;100191.88;5048423;28;20032;-34
2023/03/04 10:00:18;;;;;;;27.80;19.40;;;;;;;12.16;84.66;100185.22;5048313;28;20436;-33
2023/03/04 10:02:48;;;;;;;28.58;19.25;;;;;;;12.44;85.92;100165.88;5048302;28;20032;-33
2023/03/04 10:05:22;;;;;;;26.17;16.73;;;;;;;13.04;83.65;100181.00;5048125;28;20035;-35
2023/03/04 10:07:55;;;;;;;30.15;21.60;;;;;;;12.90;80.82;100168.88;5048229;28;20033;-30
2023/03/04 10:10:34;;;;;;;32.05;23.13;;;;;;;12.86;80.36;100174.69;5048616;28;20029;-33
2023/03/04 10:13:09;;;;;;;32.75;24.85;;;;;;;12.94;79.58;100167.38;5046730;28;20515;-33
2023/03/04 10:15:43;;;;;;;26.83;16.90;;;;;;;13.65;77.99;100166.31;5048028;28;20548;-35
2023/03/04 10:18:20;;;;;;;24.98;18.45;;;;;;;13.50;76.03;100163.28;5047439;28;20017;-34
2023/03/04 10:20:53;;;;;;;24.45;16.95;;;;;;;13.24;81.06;100152.00;5048377;28;20040;-34
2023/03/04 10:23:24;;;;;;;24.27;16.50;;;;;;;13.45;78.32;100147.94;5047715;28;20029;-33
2023/03/04 10:25:52;;;;;;;23.80;16.75;;;;;;;13.64;80.14;100148.56;5048685;28;20037;-33
2023/03/04 10:28:28;;;;;;;;;;;;;;;13.53;74.18;100154.78;5048504;28;20028;-32
2023/03/04 10:31:33;;;;;;;22.38;14.90;;;;;;;13.75;73.61;100143.44;5048021;28;19908;-33
2023/03/04 10:33:59;;;;;;;24.98;15.65;;;;;;;14.52;73.35;100136.78;5048163;28;20035;-32
2023/03/04 10:36:30;;;;;;;20.42;14.02;;;;;;;14.49;72.91;100142.66;5048049;28;20123;-34
2023/03/04 10:38:59;;;;;;;20.85;14.32;;;;;;;14.70;71.00;100141.94;5047973;28;20091;-30
2023/03/04 10:41:27;;;;;;;22.00;14.75;;;;;;;14.03;70.88;100124.66;5047548;28;20405;-32
2023/03/04 10:44:07;;;;;;;34.50;23.75;;;;;;;13.83;73.70;100113.56;5047769;28;20053;-33
2023/03/04 10:46:36;;;;;;;29.35;24.52;;;;;;;13.57;76.36;100129.16;5048211;28;20021;-31
2023/03/04 10:49:02;;;;;;;43.10;38.60;;;;;;;13.58;76.83;100116.56;5047949;28;20094;-38
2023/03/04 10:51:33;;;;;;;24.15;18.95;;;;;;;13.78;73.24;100110.81;5046557;28;20028;-31
2023/03/04 10:54:09;;;;;;;22.13;14.75;;;;;;;13.27;75.41;100116.72;5047882;28;20055;-33
2023/03/04 10:56:45;;;;;;;22.73;15.13;;;;;;;13.08;77.82;100112.56;5047566;28;20025;-32
2023/03/04 10:59:44;;;;;;;24.02;15.55;;;;;;;13.05;76.12;100108.47;5046631;28;20029;-30
2023/03/04 11:02:33;;;;;;;26.30;18.42;;;;;;;13.04;79.95;100090.78;5047519;28;20025;-34
2023/03/04 11:05:17;;;;;;;27.73;22.98;;;;;;;13.10;76.13;100098.91;5047459;28;20029;-31
2023/03/04 11:07:49;;;;;;;24.20;17.20;;;;;;;13.21;77.16;100085.50;5047890;28;20029;-32
2023/03/04 11:10:44;;;;;;;25.33;20.13;;;;;;;13.38;72.75;100090.16;5048073;28;20404;-32